createdAt,value
2022-08-17T00:00:34.981Z,100283.20
2022-08-17T00:03:17.496Z,100281.00
2022-08-17T00:06:02.727Z,100283.60
2022-08-17T00:08:41.606Z,100281.80
2022-08-17T00:11:28.966Z,100278.80
2022-08-17T00:14:04.904Z,100274.60
2022-08-17T00:16:53.464Z,100272.80
2022-08-17T00:19:26.449Z,100273.40
2022-08-17T00:22:32.353Z,100273.00
2022-08-17T00:24:44.735Z,100274.00
2022-08-17T00:27:11.496Z,100274.60
2022-08-17T00:29:38.266Z,100266.40
2022-08-17T00:33:13.762Z,100268.40
2022-08-17T00:34:52.625Z,100267.60
2022-08-17T00:37:19.388Z,100265.00
2022-08-17T00:39:46.234Z,100262.60
2022-08-17T00:42:17.455Z,100258.00
2022-08-17T00:44:45.483Z,100260.40
2022-08-17T00:47:12.338Z,100262.40
2022-08-17T00:49:39.227Z,100260.60
2022-08-17T00:52:16.744Z,100257.00
2022-08-17T00:54:49.127Z,100258.00
2022-08-17T00:57:26.221Z,100256.40
2022-08-17T01:00:02.599Z,100254.40
2022-08-17T01:02:41.566Z,100255.20
2022-08-17T01:05:25.378Z,100254.20
2022-08-17T01:07:54.344Z,100252.80
2022-08-17T01:11:00.144Z,100247.80
2022-08-17T01:13:18.186Z,100250.20
2022-08-17T01:16:20.360Z,100246.60
2022-08-17T01:18:52.531Z,100243.00
2022-08-17T01:21:47.166Z,100241.60
2022-08-17T01:24:15.288Z,100240.80
2022-08-17T01:26:44.551Z,100237.00
2022-08-17T01:29:12.778Z,100237.20
2022-08-17T01:31:47.048Z,100245.60
2022-08-17T01:34:17.273Z,100246.40
2022-08-17T01:36:48.812Z,100243.00
2022-08-17T01:39:29.697Z,100243.20
2022-08-17T01:42:29.496Z,100237.80
2022-08-17T01:45:02.763Z,100237.60
2022-08-17T01:47:29.931Z,100235.80
2022-08-17T01:49:58.093Z,100242.20
2022-08-17T01:52:25.119Z,100239.00
2022-08-17T01:54:53.529Z,100238.60
2022-08-17T01:57:20.317Z,100237.60
2022-08-17T01:59:47.678Z,100237.20
2022-08-17T02:02:30.631Z,100232.80
2022-08-17T02:05:00.648Z,100238.60
2022-08-17T02:07:28.545Z,100240.00
2022-08-17T02:09:55.362Z,100242.40
2022-08-17T02:12:39.389Z,100239.60
2022-08-17T02:15:09.562Z,100239.40
2022-08-17T02:17:36.376Z,100240.00
2022-08-17T02:20:05.293Z,100238.40
2022-08-17T02:22:32.205Z,100233.20
2022-08-17T02:25:02.508Z,100235.20
2022-08-17T02:27:30.410Z,100234.80
2022-08-17T02:29:57.622Z,100229.40
2022-08-17T02:32:28.612Z,100230.60
2022-08-17T02:34:59.914Z,100233.20
2022-08-17T02:37:28.824Z,100227.20
2022-08-17T02:39:58.394Z,100225.40
2022-08-17T02:42:31.498Z,100222.00
2022-08-17T02:44:58.398Z,100222.80
2022-08-17T02:47:25.501Z,100217.80
2022-08-17T02:49:54.119Z,100219.60
2022-08-17T02:52:42.554Z,100219.00
2022-08-17T02:55:20.750Z,100216.00
2022-08-17T02:57:49.229Z,100223.20
2022-08-17T03:00:24.371Z,100226.20
2022-08-17T03:02:52.505Z,100224.20
2022-08-17T03:05:24.696Z,100223.80
2022-08-17T03:07:52.732Z,100212.60
2022-08-17T03:10:21.711Z,100209.40
2022-08-17T03:12:49.778Z,100208.80
2022-08-17T03:15:26.789Z,100207.40
2022-08-17T03:17:56.741Z,100208.20
2022-08-17T03:20:25.661Z,100209.00
2022-08-17T03:23:01.849Z,100211.00
2022-08-17T03:25:41.285Z,100212.60
2022-08-17T03:28:12.239Z,100214.00
2022-08-17T03:30:40.425Z,100210.00
2022-08-17T03:33:12.725Z,100211.80
2022-08-17T03:35:41.350Z,100210.80
2022-08-17T03:38:11.475Z,100210.80
2022-08-17T03:40:58.948Z,100211.80
2022-08-17T03:43:31.859Z,100211.80
2022-08-17T03:46:32.393Z,100211.00
2022-08-17T03:49:23.622Z,100207.40
2022-08-17T03:52:09.744Z,100204.40
2022-08-17T03:54:55.495Z,100206.40
2022-08-17T03:57:22.466Z,100207.60
2022-08-17T03:59:50.322Z,100209.60
2022-08-17T04:02:33.708Z,100213.60
2022-08-17T04:05:01.242Z,100211.40
2022-08-17T04:07:31.793Z,100213.40
2022-08-17T04:09:59.660Z,100216.40
2022-08-17T04:12:31.256Z,100216.40
2022-08-17T04:14:58.538Z,100218.80
2022-08-17T04:17:29.412Z,100218.60
2022-08-17T04:19:56.953Z,100214.80
2022-08-17T04:22:30.773Z,100220.40
2022-08-17T04:24:59.975Z,100218.60
2022-08-17T04:27:27.306Z,100224.20
2022-08-17T04:29:55.124Z,100227.60
2022-08-17T04:32:58.478Z,100227.20
2022-08-17T04:35:10.433Z,100229.20
2022-08-17T04:37:37.258Z,100227.20
2022-08-17T04:40:27.423Z,100231.00
2022-08-17T04:43:08.994Z,100235.00
2022-08-17T04:45:55.651Z,100241.80
2022-08-17T04:48:36.512Z,100243.20
2022-08-17T04:51:22.087Z,100244.20
2022-08-17T04:53:54.833Z,100236.60
2022-08-17T04:56:25.151Z,100242.60
2022-08-17T04:58:57.765Z,100238.80
2022-08-17T05:01:28.115Z,100240.80
2022-08-17T05:04:03.235Z,100242.80
2022-08-17T05:06:49.847Z,100248.00
2022-08-17T05:09:18.546Z,100244.20
2022-08-17T05:11:46.027Z,100247.00
2022-08-17T05:14:14.044Z,100248.80
2022-08-17T05:16:40.881Z,100251.00
2022-08-17T05:19:07.697Z,100251.20
2022-08-17T05:21:34.483Z,100254.80
2022-08-17T05:24:01.265Z,100252.20
2022-08-17T05:26:32.799Z,100256.40
2022-08-17T05:29:03.317Z,100254.20
2022-08-17T05:31:31.371Z,100256.20
2022-08-17T05:33:58.319Z,100255.00
2022-08-17T05:36:41.962Z,100249.80
2022-08-17T05:39:16.185Z,100250.00
2022-08-17T05:41:46.923Z,100247.00
2022-08-17T05:44:13.720Z,100247.00
2022-08-17T05:46:45.765Z,100246.20
2022-08-17T05:49:16.276Z,100249.20
2022-08-17T05:52:08.175Z,100244.80
2022-08-17T05:54:56.532Z,100241.40
2022-08-17T05:57:52.979Z,100240.40
2022-08-17T06:00:31.486Z,100236.40
2022-08-17T06:03:16.387Z,100235.40
2022-08-17T06:06:12.051Z,100233.00
2022-08-17T06:09:09.445Z,100231.40
2022-08-17T06:11:55.554Z,100228.00
2022-08-17T06:15:25.050Z,100223.60
2022-08-17T06:18:02.183Z,100224.40
2022-08-17T06:20:58.359Z,100227.80
2022-08-17T06:23:41.583Z,100228.40
2022-08-17T06:26:27.518Z,100227.20
2022-08-17T06:29:18.718Z,100224.20
2022-08-17T06:31:46.602Z,100219.60
2022-08-17T06:34:13.831Z,100219.60
2022-08-17T06:36:54.118Z,100218.60
2022-08-17T06:39:26.599Z,100223.20
2022-08-17T06:42:54.882Z,100223.40
2022-08-17T06:45:34.362Z,100226.00
2022-08-17T06:48:24.875Z,100228.60
2022-08-17T06:51:07.390Z,100228.40
2022-08-17T06:53:50.664Z,100227.40
2022-08-17T06:57:01.621Z,100226.80
2022-08-17T06:59:56.376Z,100225.80
2022-08-17T07:02:59.622Z,100231.80
2022-08-17T07:06:01.039Z,100234.20
2022-08-17T07:08:38.105Z,100232.00
2022-08-17T07:11:21.889Z,100229.00
2022-08-17T07:14:17.298Z,100232.80
2022-08-17T07:16:50.099Z,100231.40
2022-08-17T07:19:22.679Z,100236.80
2022-08-17T07:22:20.000Z,100239.60
2022-08-17T07:25:00.511Z,100237.20
2022-08-17T07:27:42.513Z,100233.60
2022-08-17T07:30:12.585Z,100240.40
2022-08-17T07:32:49.242Z,100263.40
2022-08-17T07:35:41.359Z,100288.20
2022-08-17T07:38:55.682Z,100274.20
2022-08-17T07:41:22.525Z,100286.60
2022-08-17T07:43:52.512Z,100295.40
2022-08-17T07:47:05.696Z,100287.00
2022-08-17T07:49:32.367Z,100292.00
2022-08-17T07:52:47.493Z,100288.00
2022-08-17T07:54:52.191Z,100282.80
2022-08-17T07:57:19.467Z,100289.60
2022-08-17T08:00:01.941Z,100292.20
2022-08-17T08:02:45.559Z,100294.80
2022-08-17T08:05:49.243Z,100298.00
2022-08-17T08:08:43.980Z,100304.20
2022-08-17T08:11:15.673Z,100299.00
2022-08-17T08:13:45.632Z,100298.20
2022-08-17T08:16:20.022Z,100302.00
2022-08-17T08:18:58.236Z,100299.80
2022-08-17T08:21:49.188Z,100291.60
2022-08-17T08:24:31.871Z,100294.20
2022-08-17T08:27:32.928Z,100294.00
2022-08-17T08:30:21.738Z,100300.40
2022-08-17T08:33:07.771Z,100298.00
2022-08-17T08:36:02.949Z,100294.00
2022-08-17T08:38:50.203Z,100291.20
2022-08-17T08:41:44.916Z,100292.80
2022-08-17T08:45:00.207Z,100294.80
2022-08-17T08:47:51.640Z,100292.20
2022-08-17T08:50:42.851Z,100288.00
2022-08-17T08:53:57.841Z,100286.60
2022-08-17T08:57:19.861Z,100298.00
2022-08-17T09:00:02.277Z,100298.40
2022-08-17T09:02:43.948Z,100293.00
2022-08-17T09:05:48.735Z,100291.20
2022-08-17T09:09:03.758Z,100289.00
2022-08-17T09:12:01.466Z,100288.80
2022-08-17T09:14:51.656Z,100294.00
2022-08-17T09:17:30.070Z,100291.20
2022-08-17T09:20:28.279Z,100294.00
2022-08-17T09:23:10.608Z,100300.40
2022-08-17T09:26:06.005Z,100308.00
2022-08-17T09:28:39.105Z,100315.20
2022-08-17T09:31:18.120Z,100308.60
2022-08-17T09:33:48.986Z,100308.60
2022-08-17T09:36:28.157Z,100305.80
2022-08-17T09:39:15.833Z,100305.20
2022-08-17T09:42:07.498Z,100309.00
2022-08-17T09:45:06.837Z,100310.80
2022-08-17T09:47:56.566Z,100306.00
2022-08-17T09:51:03.388Z,100316.80
2022-08-17T09:53:36.892Z,100314.00
2022-08-17T09:56:31.697Z,100308.60
2022-08-17T09:59:20.413Z,100305.00
2022-08-17T10:01:59.460Z,100297.00
2022-08-17T10:04:45.028Z,100296.20
2022-08-17T10:07:17.961Z,100294.00
2022-08-17T10:10:14.218Z,100299.00
2022-08-17T10:13:05.372Z,100304.00
2022-08-17T10:16:11.728Z,100303.60
2022-08-17T10:18:44.317Z,100309.80
2022-08-17T10:21:34.970Z,100306.20
2022-08-17T10:25:21.492Z,100305.60
2022-08-17T10:27:53.241Z,100307.60
2022-08-17T10:30:26.823Z,100313.40
2022-08-17T10:32:59.884Z,100315.80
2022-08-17T10:36:06.404Z,100320.80
2022-08-17T10:39:19.821Z,100326.40
2022-08-17T10:41:53.405Z,100335.80
2022-08-17T10:44:44.213Z,100333.60
2022-08-17T10:47:18.681Z,100341.60
2022-08-17T10:49:54.209Z,100343.80
2022-08-17T10:52:26.355Z,100346.60
2022-08-17T10:54:58.101Z,100346.00
2022-08-17T10:57:45.411Z,100344.20
2022-08-17T11:00:36.190Z,100337.40
2022-08-17T11:03:24.885Z,100344.80
2022-08-17T11:06:30.083Z,100345.00
2022-08-17T11:09:24.347Z,100349.40
2022-08-17T11:12:33.286Z,100349.00
2022-08-17T11:15:24.376Z,100359.40
2022-08-17T11:19:14.723Z,100363.60
2022-08-17T11:22:11.694Z,100358.40
2022-08-17T11:24:48.230Z,100358.40
2022-08-17T11:27:33.043Z,100358.00
2022-08-17T11:30:04.245Z,100358.00
2022-08-17T11:32:47.619Z,100361.00
2022-08-17T11:35:20.601Z,100361.40
2022-08-17T11:38:16.233Z,100358.60
2022-08-17T11:41:11.120Z,100365.80
2022-08-17T11:43:45.860Z,100372.20
2022-08-17T11:46:18.379Z,100368.20
2022-08-17T11:49:14.253Z,100361.00
2022-08-17T11:52:35.724Z,100354.60
2022-08-17T11:55:31.886Z,100354.00
2022-08-17T11:58:33.875Z,100362.20
2022-08-17T12:01:24.291Z,100359.80
2022-08-17T12:03:57.929Z,100358.80
2022-08-17T12:06:54.941Z,100367.20
2022-08-17T12:09:26.511Z,100369.20
2022-08-17T12:12:15.441Z,100362.00
2022-08-17T12:15:10.193Z,100356.00
2022-08-17T12:17:52.228Z,100355.40
2022-08-17T12:20:32.009Z,100355.60
2022-08-17T12:23:27.907Z,100355.00
2022-08-17T12:26:19.411Z,100353.60
2022-08-17T12:28:52.499Z,100358.40
2022-08-17T12:31:34.566Z,100355.20
2022-08-17T12:34:04.565Z,100345.60
2022-08-17T12:36:33.918Z,100342.40
2022-08-17T12:39:13.899Z,100333.20
2022-08-17T12:41:46.977Z,100325.60
2022-08-17T12:44:35.350Z,100335.40
2022-08-17T12:47:22.582Z,100344.80
2022-08-17T12:50:04.123Z,100343.40
2022-08-17T12:52:33.111Z,100348.40
2022-08-17T12:54:59.782Z,100349.20
2022-08-17T12:57:41.294Z,100344.00
2022-08-17T13:00:35.514Z,100339.00
2022-08-17T13:03:15.701Z,100339.20
2022-08-17T13:05:57.487Z,100339.20
2022-08-17T13:08:33.615Z,100339.00
2022-08-17T13:11:18.702Z,100331.00
2022-08-17T13:13:55.009Z,100330.80
2022-08-17T13:16:28.142Z,100325.40
2022-08-17T13:19:12.961Z,100323.20
2022-08-17T13:21:48.183Z,100323.00
2022-08-17T13:24:25.074Z,100324.00
2022-08-17T13:27:07.801Z,100319.80
2022-08-17T13:30:00.420Z,100334.00
2022-08-17T13:32:40.440Z,100325.60
2022-08-17T13:35:49.900Z,100330.40
2022-08-17T13:38:49.773Z,100327.80
2022-08-17T13:41:36.303Z,100335.00
2022-08-17T13:44:39.944Z,100335.80
2022-08-17T13:47:19.247Z,100336.00
2022-08-17T13:49:48.880Z,100338.40
2022-08-17T13:52:43.046Z,100337.20
2022-08-17T13:55:22.897Z,100344.60
2022-08-17T13:58:03.485Z,100339.20
2022-08-17T14:00:36.532Z,100335.00
2022-08-17T14:03:05.767Z,100339.00
2022-08-17T14:05:33.923Z,100344.60
2022-08-17T14:08:06.758Z,100335.40
2022-08-17T14:10:36.671Z,100328.80
2022-08-17T14:13:05.564Z,100326.80
2022-08-17T14:15:54.601Z,100319.60
2022-08-17T14:18:49.851Z,100311.80
2022-08-17T14:21:09.819Z,100313.80
2022-08-17T14:23:37.966Z,100300.00
2022-08-17T14:26:05.543Z,100300.20
2022-08-17T14:28:33.148Z,100295.20
2022-08-17T14:31:04.418Z,100301.20
2022-08-17T14:33:31.224Z,100318.40
2022-08-17T14:35:58.174Z,100329.40
2022-08-17T14:38:24.966Z,100321.80
2022-08-17T14:40:52.204Z,100296.40
2022-08-17T14:43:20.448Z,100309.00
2022-08-17T14:45:47.407Z,100323.60
2022-08-17T14:48:14.229Z,100315.20
2022-08-17T14:50:43.260Z,100320.20
2022-08-17T14:53:13.834Z,100319.00
2022-08-17T14:55:41.043Z,100322.00
2022-08-17T14:58:09.189Z,100325.60
2022-08-17T15:00:37.822Z,100295.80
2022-08-17T15:03:05.366Z,100300.00
2022-08-17T15:05:36.510Z,100315.40
2022-08-17T15:08:04.688Z,100308.40
2022-08-17T15:10:32.537Z,100310.20
2022-08-17T15:13:00.302Z,100286.20
2022-08-17T15:15:28.433Z,100301.80
2022-08-17T15:17:55.610Z,100329.80
2022-08-17T15:20:28.072Z,100318.20
2022-08-17T15:22:57.338Z,100316.60
2022-08-17T15:25:28.226Z,100323.40
2022-08-17T15:27:56.029Z,100316.20
2022-08-17T15:30:25.794Z,100315.00
2022-08-17T15:32:55.160Z,100312.80
2022-08-17T15:35:29.060Z,100304.00
2022-08-17T15:38:11.636Z,100313.20
2022-08-17T15:40:44.032Z,100311.00
2022-08-17T15:43:23.342Z,100309.60
2022-08-17T15:46:04.921Z,100305.20
2022-08-17T15:48:41.941Z,100301.60
2022-08-17T15:51:11.963Z,100302.00
2022-08-17T15:53:41.670Z,100270.40
2022-08-17T15:56:09.786Z,100262.40
2022-08-17T15:58:38.081Z,100266.20
2022-08-17T16:01:14.343Z,100278.20
2022-08-17T16:04:01.240Z,100276.20
2022-08-17T16:06:31.340Z,100274.60
2022-08-17T16:08:59.507Z,100276.40
2022-08-17T16:11:26.673Z,100281.20
2022-08-17T16:13:54.740Z,100283.60
2022-08-17T16:16:23.809Z,100285.20
2022-08-17T16:18:54.513Z,100284.40
2022-08-17T16:21:26.220Z,100283.80
2022-08-17T16:24:13.737Z,100285.00
2022-08-17T16:26:42.764Z,100288.20
2022-08-17T16:29:09.746Z,100293.40
2022-08-17T16:31:37.889Z,100300.00
2022-08-17T16:34:17.696Z,100306.20
2022-08-17T16:36:55.014Z,100310.20
2022-08-17T16:39:31.745Z,100336.40
2022-08-17T16:41:58.710Z,100332.60
2022-08-17T16:44:29.244Z,100335.20
2022-08-17T16:46:57.717Z,100339.80
2022-08-17T16:49:37.186Z,100337.60
2022-08-17T16:52:11.471Z,100334.80
2022-08-17T16:54:45.144Z,100319.20
2022-08-17T16:57:14.679Z,100344.00
2022-08-17T16:59:44.933Z,100354.40
2022-08-17T17:02:16.132Z,100349.80
2022-08-17T17:04:56.444Z,100359.60
2022-08-17T17:08:01.431Z,100365.80
2022-08-17T17:10:41.779Z,100364.40
2022-08-17T17:13:19.166Z,100373.20
2022-08-17T17:16:12.872Z,100365.20
2022-08-17T17:18:50.697Z,100374.00
2022-08-17T17:21:32.189Z,100372.40
2022-08-17T17:24:10.467Z,100370.00
2022-08-17T17:27:33.037Z,100359.20
2022-08-17T17:30:27.572Z,100360.40
2022-08-17T17:33:17.413Z,100370.40
2022-08-17T17:36:24.511Z,100373.40
2022-08-17T17:39:30.907Z,100371.00
2022-08-17T17:42:02.715Z,100369.00
2022-08-17T17:44:46.359Z,100373.20
2022-08-17T17:47:16.471Z,100371.00
2022-08-17T17:49:46.557Z,100379.20
2022-08-17T17:53:01.015Z,100389.00
2022-08-17T17:56:06.955Z,100382.20
2022-08-17T17:59:01.530Z,100390.20
2022-08-17T18:02:02.129Z,100394.40
2022-08-17T18:04:44.764Z,100398.80
2022-08-17T18:07:40.114Z,100404.20
2022-08-17T18:10:49.073Z,100418.60
2022-08-17T18:14:03.646Z,100425.40
2022-08-17T18:16:32.995Z,100421.40
2022-08-17T18:19:00.797Z,100419.40
2022-08-17T18:21:37.829Z,100424.20
2022-08-17T18:24:10.674Z,100428.20
2022-08-17T18:26:58.911Z,100432.60
2022-08-17T18:29:30.544Z,100428.40
2022-08-17T18:32:21.613Z,100427.20
2022-08-17T18:34:54.618Z,100427.60
2022-08-17T18:37:42.787Z,100430.40
2022-08-17T18:40:19.273Z,100433.00
2022-08-17T18:42:54.908Z,100433.60
2022-08-17T18:45:53.808Z,100430.00
2022-08-17T18:48:39.032Z,100422.80
2022-08-17T18:51:41.642Z,100423.60
2022-08-17T18:54:18.903Z,100435.60
2022-08-17T18:56:55.890Z,100439.80
2022-08-17T18:59:45.008Z,100441.80
2022-08-17T19:02:19.431Z,100444.80
2022-08-17T19:05:08.478Z,100441.40
2022-08-17T19:07:46.733Z,100444.40
2022-08-17T19:10:28.831Z,100451.80
2022-08-17T19:13:12.182Z,100455.60
2022-08-17T19:16:15.723Z,100457.00
2022-08-17T19:18:56.121Z,100461.80
2022-08-17T19:21:34.395Z,100466.20
2022-08-17T19:24:19.743Z,100467.40
2022-08-17T19:26:56.923Z,100472.20
2022-08-17T19:29:36.919Z,100475.20
2022-08-17T19:32:09.118Z,100480.60
2022-08-17T19:34:39.108Z,100479.40
2022-08-17T19:37:13.237Z,100477.60
2022-08-17T19:40:52.136Z,100480.00
2022-08-17T19:43:31.303Z,100478.40
2022-08-17T19:46:35.742Z,100478.00
2022-08-17T19:49:22.790Z,100469.00
2022-08-17T19:52:33.791Z,100463.60
2022-08-17T19:55:33.870Z,100459.60
2022-08-17T19:58:18.144Z,100454.60
2022-08-17T20:00:52.696Z,100455.20
2022-08-17T20:03:56.645Z,100459.40
2022-08-17T20:06:26.010Z,100453.40
2022-08-17T20:09:18.513Z,100449.20
2022-08-17T20:12:01.762Z,100452.20
2022-08-17T20:14:55.052Z,100463.00
2022-08-17T20:17:35.192Z,100471.00
2022-08-17T20:20:20.916Z,100471.80
2022-08-17T20:23:13.038Z,100475.00
2022-08-17T20:26:19.338Z,100480.20
2022-08-17T20:29:37.832Z,100476.40
2022-08-17T20:32:25.274Z,100468.20
2022-08-17T20:35:16.876Z,100469.60
2022-08-17T20:38:39.112Z,100473.00
2022-08-17T20:41:12.296Z,100472.80
2022-08-17T20:43:38.970Z,100476.20
2022-08-17T20:46:36.402Z,100479.80
2022-08-17T20:49:09.143Z,100472.20
2022-08-17T20:52:02.487Z,100474.40
2022-08-17T20:54:57.245Z,100481.40
2022-08-17T20:57:33.258Z,100480.20
2022-08-17T21:00:19.280Z,100481.60
2022-08-17T21:02:50.415Z,100486.80
2022-08-17T21:05:57.363Z,100489.00
2022-08-17T21:08:34.763Z,100497.20
2022-08-17T21:12:03.104Z,100503.00
2022-08-17T21:14:32.954Z,100508.60
2022-08-17T21:17:06.842Z,100511.60
2022-08-17T21:20:10.827Z,100506.20
2022-08-17T21:23:18.664Z,100502.40
2022-08-17T21:26:22.939Z,100503.40
2022-08-17T21:29:31.150Z,100506.40
2022-08-17T21:31:59.487Z,100507.20
2022-08-17T21:34:33.042Z,100507.80
2022-08-17T21:37:30.585Z,100513.40
2022-08-17T21:40:18.759Z,100513.80
2022-08-17T21:43:04.906Z,100513.60
2022-08-17T21:45:38.068Z,100509.40
2022-08-17T21:48:21.070Z,100506.20
2022-08-17T21:51:15.638Z,100508.40
2022-08-17T21:53:42.266Z,100511.60
2022-08-17T21:56:13.298Z,100508.20
2022-08-17T21:58:48.269Z,100507.60
2022-08-17T22:01:33.676Z,100505.40
2022-08-17T22:04:35.095Z,100502.20
2022-08-17T22:07:07.198Z,100505.00
2022-08-17T22:09:48.622Z,100508.80
2022-08-17T22:12:24.087Z,100513.20
2022-08-17T22:14:54.280Z,100518.40
2022-08-17T22:17:25.080Z,100512.20
2022-08-17T22:20:14.670Z,100513.00
2022-08-17T22:23:06.330Z,100508.00
2022-08-17T22:25:38.001Z,100510.00
2022-08-17T22:28:09.118Z,100508.20
2022-08-17T22:30:59.839Z,100513.60
2022-08-17T22:33:49.410Z,100515.80
2022-08-17T22:36:29.234Z,100522.60
2022-08-17T22:39:00.258Z,100516.80
2022-08-17T22:41:54.367Z,100517.40
2022-08-17T22:44:37.884Z,100523.20
2022-08-17T22:47:16.924Z,100516.40
2022-08-17T22:50:00.223Z,100516.00
2022-08-17T22:53:03.458Z,100517.60
2022-08-17T22:55:52.513Z,100508.60
2022-08-17T22:58:43.482Z,100503.00
2022-08-17T23:01:33.229Z,100503.80
2022-08-17T23:04:27.490Z,100515.80
2022-08-17T23:06:54.294Z,100521.80
2022-08-17T23:09:21.975Z,100521.00
2022-08-17T23:11:55.492Z,100515.80
2022-08-17T23:14:22.496Z,100512.40
2022-08-17T23:16:53.057Z,100512.60
2022-08-17T23:19:22.225Z,100514.80
2022-08-17T23:21:52.654Z,100516.80
2022-08-17T23:24:27.834Z,100515.20
2022-08-17T23:26:57.397Z,100521.80
2022-08-17T23:29:26.223Z,100519.20
2022-08-17T23:31:53.130Z,100521.80
2022-08-17T23:34:20.000Z,100525.60
2022-08-17T23:36:54.103Z,100518.40
2022-08-17T23:39:24.616Z,100516.00
2022-08-17T23:41:58.996Z,100514.60
2022-08-17T23:44:26.833Z,100518.00
2022-08-17T23:46:54.724Z,100517.40
2022-08-17T23:49:21.454Z,100519.40
2022-08-17T23:51:49.428Z,100524.20
2022-08-17T23:54:43.772Z,100522.60
2022-08-17T23:57:13.569Z,100524.20
2022-08-17T23:59:41.887Z,100528.60
